createdAt,value
2023-02-24T00:01:24.846Z,61.50
2023-02-24T00:04:00.482Z,61.70
2023-02-24T00:06:40.171Z,61.90
2023-02-24T00:09:27.269Z,61.30
2023-02-24T00:12:12.681Z,61.20
2023-02-24T00:14:47.528Z,61.20
2023-02-24T00:17:27.615Z,61.10
2023-02-24T00:20:05.551Z,61.40
2023-02-24T00:22:41.480Z,61.70
2023-02-24T00:25:16.501Z,62.10
2023-02-24T00:27:53.269Z,62.20
2023-02-24T00:30:29.706Z,62.10
2023-02-24T00:33:06.361Z,62.20
2023-02-24T00:35:41.289Z,62.40
2023-02-24T00:38:17.193Z,62.70
2023-02-24T00:40:52.077Z,63.90
2023-02-24T00:43:27.188Z,64.30
2023-02-24T00:46:02.541Z,65.10
2023-02-24T00:48:42.259Z,65.90
2023-02-24T00:51:23.435Z,66.70
2023-02-24T00:53:58.375Z,67.20
2023-02-24T00:56:35.081Z,67.20
2023-02-24T00:59:13.002Z,67.20
2023-02-24T01:01:50.459Z,67.50
2023-02-24T01:04:25.485Z,67.80
2023-02-24T01:07:00.626Z,67.80
2023-02-24T01:09:35.581Z,68.00
2023-02-24T01:12:38.579Z,68.20
2023-02-24T01:15:13.507Z,68.60
2023-02-24T01:17:48.502Z,68.70
2023-02-24T01:20:23.495Z,69.30
2023-02-24T01:22:58.652Z,70.30
2023-02-24T01:25:33.536Z,70.20
2023-02-24T01:28:11.057Z,70.10
2023-02-24T01:30:46.259Z,70.10
2023-02-24T01:33:21.811Z,69.70
2023-02-24T01:35:57.061Z,70.10
2023-02-24T01:38:31.951Z,69.80
2023-02-24T01:41:07.055Z,70.10
2023-02-24T01:44:09.689Z,70.20
2023-02-24T01:46:48.332Z,70.60
2023-02-24T01:49:34.176Z,70.10
2023-02-24T01:52:17.424Z,70.10
2023-02-24T01:54:58.708Z,70.10
2023-02-24T01:57:36.786Z,70.10
2023-02-24T02:00:33.640Z,69.90
2023-02-24T02:03:15.901Z,69.70
2023-02-24T02:05:52.935Z,69.80
2023-02-24T02:08:29.625Z,70.00
2023-02-24T02:11:10.169Z,70.70
2023-02-24T02:13:46.768Z,70.10
2023-02-24T02:16:32.786Z,70.70
2023-02-24T02:19:32.189Z,70.80
2023-02-24T02:22:43.073Z,70.80
2023-02-24T02:26:00.233Z,70.90
2023-02-24T02:29:10.898Z,71.20
2023-02-24T02:32:23.823Z,71.00
2023-02-24T02:35:31.699Z,71.20
2023-02-24T02:38:38.547Z,71.10
2023-02-24T02:41:43.565Z,70.80
2023-02-24T02:44:23.995Z,71.20
2023-02-24T02:47:13.376Z,70.90
2023-02-24T02:50:00.654Z,71.00
2023-02-24T02:52:47.906Z,70.90
2023-02-24T02:55:47.058Z,70.40
2023-02-24T02:58:28.040Z,70.10
2023-02-24T03:01:07.187Z,70.30
2023-02-24T03:03:51.996Z,70.50
2023-02-24T03:06:34.610Z,70.30
2023-02-24T03:09:19.426Z,70.60
2023-02-24T03:12:08.327Z,70.70
2023-02-24T03:14:52.110Z,70.60
2023-02-24T03:17:41.374Z,70.80
2023-02-24T03:20:56.976Z,70.80
2023-02-24T03:23:36.688Z,70.50
2023-02-24T03:26:37.665Z,70.20
2023-02-24T03:29:37.548Z,70.30
2023-02-24T03:32:20.457Z,70.10
2023-02-24T03:35:09.423Z,70.20
2023-02-24T03:37:47.322Z,70.10
2023-02-24T03:40:28.602Z,70.20
2023-02-24T03:43:30.372Z,70.20
2023-02-24T03:46:06.671Z,70.70
2023-02-24T03:48:50.153Z,70.70
2023-02-24T03:51:26.475Z,70.50
2023-02-24T03:54:44.500Z,70.50
2023-02-24T03:58:01.001Z,70.90
2023-02-24T04:00:57.100Z,70.80
2023-02-24T04:04:09.486Z,70.50
2023-02-24T04:06:56.334Z,70.80
2023-02-24T04:09:50.580Z,70.20
2023-02-24T04:12:37.699Z,70.80
2023-02-24T04:15:43.608Z,70.90
2023-02-24T04:18:24.732Z,70.60
2023-02-24T04:21:03.506Z,70.60
2023-02-24T04:23:43.162Z,69.90
2023-02-24T04:26:20.687Z,69.50
2023-02-24T04:28:56.588Z,69.50
2023-02-24T04:31:32.972Z,69.80
2023-02-24T04:34:09.523Z,69.50
2023-02-24T04:36:50.546Z,69.80
2023-02-24T04:39:26.404Z,70.20
2023-02-24T04:42:06.031Z,70.30
2023-02-24T04:44:42.804Z,70.50
2023-02-24T04:47:17.748Z,70.80
2023-02-24T04:49:54.972Z,71.10
2023-02-24T04:52:30.208Z,70.70
2023-02-24T04:55:10.097Z,70.60
2023-02-24T04:57:46.009Z,70.00
2023-02-24T05:00:22.504Z,70.70
2023-02-24T05:02:57.599Z,70.70
2023-02-24T05:05:35.758Z,70.50
2023-02-24T05:08:11.769Z,70.20
2023-02-24T05:10:47.567Z,70.70
2023-02-24T05:13:31.641Z,70.20
2023-02-24T05:16:09.049Z,70.10
2023-02-24T05:18:47.311Z,70.80
2023-02-24T05:21:37.175Z,71.60
2023-02-24T05:24:12.053Z,71.80
2023-02-24T05:26:47.094Z,72.00
2023-02-24T05:29:22.309Z,72.30
2023-02-24T05:31:59.966Z,72.80
2023-02-24T05:34:35.133Z,72.40
2023-02-24T05:37:10.710Z,72.20
2023-02-24T05:39:45.840Z,72.60
2023-02-24T05:42:20.696Z,72.40
2023-02-24T05:44:55.543Z,72.50
2023-02-24T05:47:30.422Z,72.70
2023-02-24T05:50:06.204Z,72.70
2023-02-24T05:52:41.113Z,72.50
2023-02-24T05:55:16.325Z,72.10
2023-02-24T05:57:53.118Z,71.70
2023-02-24T06:00:28.065Z,72.50
2023-02-24T06:03:08.392Z,72.50
2023-02-24T06:05:43.953Z,72.00
2023-02-24T06:08:18.795Z,71.70
2023-02-24T06:10:53.746Z,72.00
2023-02-24T06:13:28.599Z,72.00
2023-02-24T06:16:06.170Z,71.60
2023-02-24T06:18:42.643Z,71.60
2023-02-24T06:21:18.446Z,71.90
2023-02-24T06:23:53.406Z,72.10
2023-02-24T06:26:33.610Z,71.80
2023-02-24T06:29:15.736Z,71.80
2023-02-24T06:31:51.356Z,72.10
2023-02-24T06:34:27.696Z,72.20
2023-02-24T06:37:04.220Z,72.40
2023-02-24T06:39:40.323Z,72.80
2023-02-24T06:42:15.168Z,73.00
2023-02-24T06:44:50.333Z,73.10
2023-02-24T06:47:26.875Z,73.20
2023-02-24T06:50:01.925Z,73.00
2023-02-24T06:52:37.040Z,72.90
2023-02-24T06:55:25.329Z,72.10
2023-02-24T06:58:04.334Z,71.50
2023-02-24T07:00:39.352Z,71.30
2023-02-24T07:03:17.142Z,70.90
2023-02-24T07:06:10.797Z,71.40
2023-02-24T07:08:47.042Z,71.00
2023-02-24T07:11:22.411Z,71.60
2023-02-24T07:13:59.387Z,70.70
2023-02-24T07:16:35.729Z,70.30
2023-02-24T07:19:15.412Z,70.30
2023-02-24T07:21:52.605Z,70.50
2023-02-24T07:24:33.604Z,69.30
2023-02-24T07:27:18.121Z,68.90
2023-02-24T07:29:53.896Z,68.50
2023-02-24T07:32:30.442Z,68.60
2023-02-24T07:35:05.877Z,68.30
2023-02-24T07:37:41.619Z,67.40
2023-02-24T07:40:17.450Z,66.80
2023-02-24T07:42:54.130Z,66.70
2023-02-24T07:45:29.675Z,65.30
2023-02-24T07:48:04.604Z,64.80
2023-02-24T07:50:42.041Z,64.70
2023-02-24T07:53:18.785Z,63.60
2023-02-24T07:55:54.297Z,63.60
2023-02-24T07:58:29.150Z,62.10
2023-02-24T08:01:08.769Z,61.70
2023-02-24T08:03:44.909Z,61.10
2023-02-24T08:06:37.613Z,60.30
2023-02-24T08:09:20.751Z,60.10
2023-02-24T08:11:56.445Z,59.90
2023-02-24T08:14:34.850Z,59.80
2023-02-24T08:17:10.914Z,60.60
2023-02-24T08:19:49.116Z,60.50
2023-02-24T08:22:27.630Z,60.70
2023-02-24T08:25:08.764Z,59.70
2023-02-24T08:27:44.841Z,58.00
2023-02-24T08:30:25.609Z,57.60
2023-02-24T08:33:00.517Z,58.20
2023-02-24T08:35:38.621Z,58.50
2023-02-24T08:38:23.728Z,58.70
2023-02-24T08:41:04.850Z,58.90
2023-02-24T08:43:40.990Z,59.40
2023-02-24T08:46:21.241Z,58.20
2023-02-24T08:49:00.927Z,57.60
2023-02-24T08:51:43.608Z,56.70
2023-02-24T08:54:27.241Z,56.10
2023-02-24T08:57:08.229Z,56.10
2023-02-24T08:59:49.802Z,54.80
2023-02-24T09:02:29.485Z,54.20
2023-02-24T09:05:13.153Z,54.20
2023-02-24T09:07:54.643Z,53.90
2023-02-24T09:10:29.574Z,53.60
2023-02-24T09:13:08.578Z,52.40
2023-02-24T09:15:44.172Z,52.30
2023-02-24T09:18:19.017Z,51.80
2023-02-24T09:20:56.747Z,51.80
2023-02-24T09:23:45.806Z,51.40
2023-02-24T09:26:20.786Z,50.50
2023-02-24T09:28:55.875Z,50.50
2023-02-24T09:31:40.698Z,50.10
2023-02-24T09:34:18.422Z,49.60
2023-02-24T09:37:02.996Z,49.80
2023-02-24T09:39:55.902Z,50.20
2023-02-24T09:42:46.241Z,49.10
2023-02-24T09:45:33.373Z,48.30
2023-02-24T09:48:23.314Z,47.90
2023-02-24T09:51:10.488Z,47.60
2023-02-24T09:53:52.502Z,47.40
2023-02-24T09:56:37.117Z,47.10
2023-02-24T10:00:00.815Z,46.10
2023-02-24T10:02:59.986Z,45.40
2023-02-24T10:06:12.209Z,45.30
2023-02-24T10:09:11.374Z,45.40
2023-02-24T10:12:05.820Z,43.20
2023-02-24T10:15:18.864Z,42.50
2023-02-24T10:17:57.454Z,41.10
2023-02-24T10:20:45.647Z,40.70
2023-02-24T10:23:56.432Z,40.50
2023-02-24T10:26:59.977Z,40.90
2023-02-24T10:30:19.714Z,41.20
2023-02-24T10:32:58.757Z,42.00
2023-02-24T10:35:36.654Z,42.50
2023-02-24T10:38:11.653Z,42.40
2023-02-24T10:40:56.635Z,42.20
2023-02-24T10:43:33.746Z,42.00
2023-02-24T10:46:39.998Z,42.00
2023-02-24T10:49:17.271Z,42.30
2023-02-24T10:51:53.439Z,42.80
2023-02-24T10:54:44.779Z,42.60
2023-02-24T10:57:38.258Z,43.20
2023-02-24T11:00:32.741Z,43.80
2023-02-24T11:03:19.477Z,43.70
2023-02-24T11:06:08.247Z,43.30
2023-02-24T11:08:48.733Z,43.30
2023-02-24T11:11:54.392Z,43.20
2023-02-24T11:14:48.165Z,43.00
2023-02-24T11:17:27.104Z,43.40
2023-02-24T11:20:13.370Z,43.60
2023-02-24T11:22:52.404Z,43.40
2023-02-24T11:25:36.971Z,43.80
2023-02-24T11:28:33.003Z,42.60
2023-02-24T11:31:29.483Z,42.60
2023-02-24T11:34:29.064Z,43.00
2023-02-24T11:37:34.394Z,43.00
2023-02-24T11:40:16.250Z,43.00
2023-02-24T11:43:05.040Z,43.20
2023-02-24T11:45:54.260Z,43.80
2023-02-24T11:48:39.562Z,43.50
2023-02-24T11:51:23.382Z,42.60
2023-02-24T11:54:06.407Z,42.50
2023-02-24T11:56:53.598Z,42.30
2023-02-24T12:00:13.355Z,42.40
2023-02-24T12:02:55.514Z,42.50
2023-02-24T12:05:43.802Z,42.40
2023-02-24T12:08:33.213Z,42.60
2023-02-24T12:11:33.684Z,42.20
2023-02-24T12:14:34.615Z,41.50
2023-02-24T12:17:40.060Z,41.50
2023-02-24T12:20:42.095Z,41.60
2023-02-24T12:23:23.047Z,41.30
2023-02-24T12:26:20.837Z,41.00
2023-02-24T12:29:16.219Z,40.50
2023-02-24T12:32:15.803Z,40.50
2023-02-24T12:35:19.850Z,40.60
2023-02-24T12:38:32.324Z,40.00
2023-02-24T12:41:30.354Z,39.20
2023-02-24T12:44:30.317Z,39.00
2023-02-24T12:47:12.812Z,38.40
2023-02-24T12:50:06.798Z,38.20
2023-02-24T12:52:53.981Z,38.40
2023-02-24T12:55:51.829Z,38.20
2023-02-24T12:58:33.090Z,37.70
2023-02-24T13:01:26.670Z,37.60
2023-02-24T13:04:34.621Z,37.50
2023-02-24T13:07:17.354Z,37.30
2023-02-24T13:10:08.167Z,36.50
2023-02-24T13:13:04.128Z,36.20
2023-02-24T13:15:52.325Z,36.30
2023-02-24T13:18:31.826Z,36.20
2023-02-24T13:21:10.135Z,36.40
2023-02-24T13:24:01.004Z,37.00
2023-02-24T13:26:36.001Z,37.50
2023-02-24T13:29:13.836Z,38.10
2023-02-24T13:31:53.212Z,37.90
2023-02-24T13:34:42.011Z,37.90
2023-02-24T13:37:37.637Z,38.00
2023-02-24T13:40:18.266Z,38.20
2023-02-24T13:42:57.766Z,38.30
2023-02-24T13:45:39.776Z,38.50
2023-02-24T13:48:27.482Z,38.60
2023-02-24T13:51:21.418Z,38.50
2023-02-24T13:54:29.754Z,38.70
2023-02-24T13:57:08.993Z,38.60
2023-02-24T14:00:09.971Z,38.70
2023-02-24T14:02:46.866Z,38.50
2023-02-24T14:05:27.057Z,38.20
2023-02-24T14:08:04.694Z,38.30
2023-02-24T14:10:45.872Z,38.50
2023-02-24T14:13:27.919Z,38.70
2023-02-24T14:16:09.214Z,38.80
2023-02-24T14:19:01.641Z,38.80
2023-02-24T14:21:36.556Z,39.00
2023-02-24T14:24:13.189Z,39.10
2023-02-24T14:26:55.936Z,39.20
2023-02-24T14:29:43.634Z,39.10
2023-02-24T14:32:26.246Z,39.00
2023-02-24T14:35:01.225Z,38.90
2023-02-24T14:37:36.398Z,38.90
2023-02-24T14:40:16.002Z,39.10
2023-02-24T14:42:51.765Z,39.10
2023-02-24T14:45:29.110Z,39.30
2023-02-24T14:48:04.146Z,39.50
2023-02-24T14:50:39.075Z,39.50
2023-02-24T14:53:18.661Z,39.70
2023-02-24T14:55:57.051Z,39.70
2023-02-24T14:58:50.747Z,39.60
2023-02-24T15:01:34.050Z,39.90
2023-02-24T15:04:37.638Z,40.00
2023-02-24T15:07:24.497Z,39.80
2023-02-24T15:10:01.214Z,39.90
2023-02-24T15:12:47.583Z,39.20
2023-02-24T15:15:28.589Z,39.90
2023-02-24T15:18:14.455Z,40.00
2023-02-24T15:21:07.258Z,40.00
2023-02-24T15:23:42.098Z,40.20
2023-02-24T15:26:35.227Z,40.30
2023-02-24T15:29:25.711Z,40.10
2023-02-24T15:32:04.149Z,40.20
2023-02-24T15:34:39.211Z,40.40
2023-02-24T15:37:28.477Z,40.80
2023-02-24T15:40:20.893Z,40.90
2023-02-24T15:43:10.686Z,40.70
2023-02-24T15:45:46.556Z,40.50
2023-02-24T15:48:26.797Z,40.60
2023-02-24T15:51:05.643Z,40.50
2023-02-24T15:53:40.579Z,40.60
2023-02-24T15:56:17.175Z,40.60
2023-02-24T15:58:52.583Z,40.70
2023-02-24T16:01:27.560Z,40.80
2023-02-24T16:04:04.778Z,40.80
2023-02-24T16:06:53.919Z,41.00
2023-02-24T16:09:37.538Z,41.10
2023-02-24T16:12:21.759Z,41.20
2023-02-24T16:15:02.482Z,40.30
2023-02-24T16:17:40.861Z,41.60
2023-02-24T16:20:28.422Z,42.10
2023-02-24T16:23:05.467Z,42.30
2023-02-24T16:25:45.487Z,42.40
2023-02-24T16:28:22.565Z,42.70
2023-02-24T16:30:57.480Z,42.60
2023-02-24T16:33:48.070Z,42.60
2023-02-24T16:36:28.777Z,42.80
2023-02-24T16:39:05.093Z,42.90
2023-02-24T16:41:40.598Z,42.90
2023-02-24T16:44:15.483Z,43.20
2023-02-24T16:46:51.630Z,43.20
2023-02-24T16:49:26.457Z,43.40
2023-02-24T16:52:01.331Z,43.30
2023-02-24T16:54:36.320Z,43.20
2023-02-24T16:57:11.732Z,43.10
2023-02-24T16:59:46.633Z,43.20
2023-02-24T17:02:24.914Z,43.60
2023-02-24T17:04:59.730Z,43.70
2023-02-24T17:07:39.184Z,44.00
2023-02-24T17:10:14.737Z,44.10
2023-02-24T17:12:50.118Z,44.20
2023-02-24T17:15:25.646Z,44.50
2023-02-24T17:18:00.581Z,44.50
2023-02-24T17:20:38.765Z,44.90
2023-02-24T17:23:13.678Z,45.10
2023-02-24T17:25:56.465Z,45.40
2023-02-24T17:28:32.441Z,45.70
2023-02-24T17:31:07.623Z,46.00
2023-02-24T17:33:42.642Z,46.10
2023-02-24T17:36:17.559Z,46.40
2023-02-24T17:38:53.011Z,46.70
2023-02-24T17:41:27.910Z,46.90
2023-02-24T17:44:02.907Z,47.10
2023-02-24T17:46:38.072Z,47.30
2023-02-24T17:49:13.481Z,47.20
2023-02-24T17:51:48.584Z,46.70
2023-02-24T17:54:23.428Z,46.50
2023-02-24T17:56:58.318Z,46.20
2023-02-24T17:59:33.155Z,46.00
2023-02-24T18:02:10.821Z,45.60
2023-02-24T18:04:45.762Z,45.60
2023-02-24T18:07:25.054Z,45.30
2023-02-24T18:10:00.193Z,45.30
2023-02-24T18:12:35.176Z,45.20
2023-02-24T18:15:10.937Z,45.00
2023-02-24T18:17:46.240Z,44.60
2023-02-24T18:20:21.271Z,45.50
2023-02-24T18:22:56.172Z,44.30
2023-02-24T18:25:31.108Z,44.20
2023-02-24T18:28:06.415Z,44.40
2023-02-24T18:30:41.381Z,44.00
2023-02-24T18:33:16.446Z,44.20
2023-02-24T18:35:59.771Z,44.50
2023-02-24T18:38:34.871Z,44.10
2023-02-24T18:41:23.248Z,43.30
2023-02-24T18:43:59.258Z,43.30
2023-02-24T18:46:34.480Z,43.00
2023-02-24T18:49:10.205Z,42.40
2023-02-24T18:51:46.445Z,41.90
2023-02-24T18:54:21.450Z,41.90
2023-02-24T18:56:56.433Z,40.90
2023-02-24T18:59:31.507Z,40.40
2023-02-24T19:02:06.577Z,40.20
2023-02-24T19:04:41.517Z,39.90
2023-02-24T19:07:16.736Z,39.60
2023-02-24T19:09:51.843Z,39.50
2023-02-24T19:12:26.725Z,39.20
2023-02-24T19:15:02.773Z,39.10
2023-02-24T19:17:38.327Z,40.10
2023-02-24T19:20:16.442Z,40.10
2023-02-24T19:22:51.798Z,39.90
2023-02-24T19:25:26.911Z,39.90
2023-02-24T19:28:01.839Z,40.00
2023-02-24T19:30:39.953Z,40.10
2023-02-24T19:33:15.892Z,40.00
2023-02-24T19:35:53.225Z,39.90
2023-02-24T19:38:28.438Z,40.40
2023-02-24T19:41:03.707Z,40.50
2023-02-24T19:43:41.686Z,40.10
2023-02-24T19:46:17.642Z,40.30
2023-02-24T19:48:52.628Z,40.40
2023-02-24T19:51:28.291Z,40.50
2023-02-24T19:54:05.766Z,40.70
2023-02-24T19:56:40.835Z,40.60
2023-02-24T19:59:16.446Z,40.80
2023-02-24T20:01:52.345Z,40.90
2023-02-24T20:04:27.307Z,41.00
2023-02-24T20:07:02.264Z,41.00
2023-02-24T20:09:37.641Z,41.00
2023-02-24T20:12:12.604Z,41.10
2023-02-24T20:14:47.434Z,41.20
2023-02-24T20:17:22.646Z,40.90
2023-02-24T20:19:57.529Z,40.80
2023-02-24T20:22:32.465Z,40.80
2023-02-24T20:25:08.383Z,40.80
2023-02-24T20:27:43.550Z,40.60
2023-02-24T20:30:18.699Z,40.70
2023-02-24T20:32:54.052Z,40.90
2023-02-24T20:35:30.409Z,41.00
2023-02-24T20:38:05.446Z,41.20
2023-02-24T20:40:40.490Z,41.50
2023-02-24T20:43:15.402Z,41.60
2023-02-24T20:45:50.299Z,41.80
2023-02-24T20:48:26.257Z,41.90
2023-02-24T20:51:04.956Z,41.90
2023-02-24T20:53:55.894Z,41.80
2023-02-24T20:56:36.380Z,42.40
2023-02-24T20:59:18.905Z,42.80
2023-02-24T21:01:54.917Z,43.40
2023-02-24T21:04:29.947Z,43.60
2023-02-24T21:07:04.934Z,44.20
2023-02-24T21:09:39.894Z,44.90
2023-02-24T21:12:14.754Z,45.10
2023-02-24T21:14:49.661Z,45.80
2023-02-24T21:17:24.659Z,45.10
2023-02-24T21:20:01.562Z,49.50
2023-02-24T21:22:39.093Z,51.50
2023-02-24T21:25:14.038Z,51.00
2023-02-24T21:27:48.939Z,50.90
2023-02-24T21:30:23.815Z,52.10
2023-02-24T21:32:58.780Z,54.60
2023-02-24T21:35:33.844Z,58.20
2023-02-24T21:38:09.352Z,60.60
2023-02-24T21:40:45.099Z,60.80
2023-02-24T21:43:21.637Z,62.10
2023-02-24T21:46:00.830Z,63.10
2023-02-24T21:48:36.948Z,63.50
2023-02-24T21:51:14.085Z,63.70
2023-02-24T21:53:49.664Z,66.10
2023-02-24T21:56:28.225Z,70.10
2023-02-24T21:59:06.981Z,70.80
2023-02-24T22:01:44.373Z,72.00
2023-02-24T22:04:20.111Z,72.90
2023-02-24T22:06:54.998Z,73.70
2023-02-24T22:09:30.767Z,74.20
2023-02-24T22:12:06.473Z,74.60
2023-02-24T22:14:41.341Z,76.30
2023-02-24T22:17:16.214Z,76.40
2023-02-24T22:19:51.338Z,77.00
2023-02-24T22:22:26.345Z,78.50
2023-02-24T22:25:01.392Z,78.90
2023-02-24T22:27:36.588Z,79.20
2023-02-24T22:30:12.044Z,79.20
2023-02-24T22:32:47.156Z,79.20
2023-02-24T22:35:22.066Z,78.20
2023-02-24T22:37:57.314Z,77.50
2023-02-24T22:40:32.361Z,76.90
2023-02-24T22:43:07.502Z,75.30
2023-02-24T22:45:42.507Z,74.60
2023-02-24T22:48:17.538Z,73.40
2023-02-24T22:50:56.475Z,72.00
2023-02-24T22:53:34.670Z,71.10
2023-02-24T22:56:12.914Z,68.30
2023-02-24T22:58:48.058Z,68.10
2023-02-24T23:01:30.577Z,67.70
2023-02-24T23:04:11.087Z,66.50
2023-02-24T23:06:47.531Z,66.50
2023-02-24T23:09:22.811Z,63.90
2023-02-24T23:11:57.760Z,63.80
2023-02-24T23:14:32.774Z,62.20
2023-02-24T23:17:08.570Z,61.80
2023-02-24T23:19:43.723Z,60.80
2023-02-24T23:22:19.099Z,62.50
2023-02-24T23:24:54.097Z,63.40
2023-02-24T23:27:29.038Z,63.40
2023-02-24T23:30:09.665Z,63.60
2023-02-24T23:32:44.695Z,61.70
2023-02-24T23:35:19.668Z,59.60
2023-02-24T23:37:54.834Z,59.90
2023-02-24T23:40:32.191Z,60.20
2023-02-24T23:43:13.045Z,60.00
2023-02-24T23:45:47.984Z,61.40
2023-02-24T23:48:24.180Z,62.40
2023-02-24T23:51:02.486Z,61.70
2023-02-24T23:53:43.708Z,61.80
2023-02-24T23:56:25.662Z,61.60
2023-02-24T23:59:00.570Z,60.90
